Time;durP1;ratioP1;P1;durP2;ratioP2;P2;SDS_P1;SDS_P2;PMS_P1;PMS_P2;Temp;Humidity;BMP_temperature;BMP_pressure;BME280_temperature;BME280_humidity;BME280_pressure;Samples;Min_cycle;Max_cycle;Signal;HPM_P1;HPM_P2
2022/06/21 00:02:15;;;;;;;2.00;0.73;;;18.50;99.90;;;;;;5057309;28;20294;-64
2022/06/21 00:04:42;;;;;;;0.60;0.60;;;18.50;99.90;;;;;;5054693;28;20821;-63
2022/06/21 00:07:13;;;;;;;0.63;0.63;;;18.40;99.90;;;;;;5054691;28;20220;-64
2022/06/21 00:09:39;;;;;;;1.20;0.50;;;18.40;99.90;;;;;;5053577;28;20235;-63
2022/06/21 00:12:10;;;;;;;0.85;0.70;;;18.30;99.90;;;;;;5056312;28;20196;-63
2022/06/21 00:14:37;;;;;;;0.70;0.70;;;18.30;99.90;;;;;;5054344;28;20658;-64
2022/06/21 00:17:04;;;;;;;0.50;0.50;;;18.20;99.90;;;;;;5052959;28;20202;-63
2022/06/21 00:19:33;;;;;;;0.57;0.57;;;18.20;99.90;;;;;;5053557;28;20700;-64
2022/06/21 00:22:00;;;;;;;0.60;0.60;;;18.20;99.90;;;;;;5050746;28;20235;-64
2022/06/21 00:24:27;;;;;;;0.70;0.70;;;18.20;99.90;;;;;;5055257;28;20281;-63
2022/06/21 00:26:53;;;;;;;0.80;0.80;;;18.10;99.90;;;;;;5054747;28;20303;-62
2022/06/21 00:29:20;;;;;;;0.80;0.75;;;18.10;99.90;;;;;;5055688;28;20246;-62
2022/06/21 00:31:49;;;;;;;0.50;0.50;;;18.10;99.90;;;;;;5053862;28;20685;-62
2022/06/21 00:34:19;;;;;;;0.60;0.60;;;18.10;99.90;;;;;;5053795;28;20251;-63
2022/06/21 00:36:48;;;;;;;0.70;0.60;;;18.10;99.90;;;;;;5053368;28;20204;-63
2022/06/21 00:39:17;;;;;;;0.63;0.60;;;18.10;99.90;;;;;;5054308;28;20250;-63
2022/06/21 00:41:50;;;;;;;0.60;0.60;;;18.10;99.90;;;;;;5045095;28;20722;-63
2022/06/21 00:44:23;;;;;;;0.50;0.50;;;18.10;99.90;;;;;;5043958;28;20311;-63
2022/06/21 00:46:55;;;;;;;0.60;0.60;;;18.10;99.90;;;;;;5052023;28;20218;-62
2022/06/21 00:49:29;;;;;;;0.60;0.60;;;18.00;99.90;;;;;;5053733;28;20290;-63
2022/06/21 00:52:05;;;;;;;0.70;0.70;;;17.90;99.90;;;;;;5053460;28;20203;-62
2022/06/21 00:54:37;;;;;;;0.60;0.60;;;17.90;99.90;;;;;;5052726;28;20219;-62
2022/06/21 00:57:12;;;;;;;0.70;0.70;;;17.90;99.90;;;;;;5052217;28;20196;-62
2022/06/21 00:59:39;;;;;;;0.50;0.50;;;17.80;99.90;;;;;;5053238;28;20203;-61
2022/06/21 01:02:27;;;;;;;0.50;0.50;;;17.80;99.90;;;;;;5052056;28;20283;-63
2022/06/21 01:04:57;;;;;;;1.23;0.77;;;17.80;99.90;;;;;;5054451;28;20204;-63
2022/06/21 01:07:25;;;;;;;0.68;0.68;;;17.80;99.90;;;;;;5053088;28;20242;-63
2022/06/21 01:09:57;;;;;;;0.60;0.60;;;17.70;99.90;;;;;;5051244;28;20208;-63
2022/06/21 01:12:32;;;;;;;0.60;0.60;;;17.80;99.90;;;;;;5052700;28;20200;-64
2022/06/21 01:15:06;;;;;;;0.70;0.70;;;17.70;99.90;;;;;;5046540;28;20768;-64
2022/06/21 01:17:34;;;;;;;1.08;0.60;;;17.80;99.90;;;;;;5058968;28;20602;-63
2022/06/21 01:20:04;;;;;;;0.80;0.80;;;17.80;99.90;;;;;;5051333;28;20275;-63
2022/06/21 01:22:39;;;;;;;0.40;0.40;;;17.80;99.90;;;;;;5060396;28;20223;-64
2022/06/21 01:25:23;;;;;;;0.77;0.77;;;17.80;99.90;;;;;;5062240;28;20242;-63
2022/06/21 01:27:55;;;;;;;0.63;0.63;;;17.80;99.90;;;;;;5056759;28;20243;-63
2022/06/21 01:30:22;;;;;;;0.70;0.70;;;17.70;99.90;;;;;;5053062;28;20231;-62
2022/06/21 01:32:50;;;;;;;0.75;0.75;;;17.70;99.90;;;;;;5052400;28;20343;-62
2022/06/21 01:35:34;;;;;;;0.70;0.70;;;17.70;99.90;;;;;;5052917;28;20200;-62
2022/06/21 01:38:04;;;;;;;0.63;0.63;;;17.70;99.90;;;;;;5052024;28;20196;-63
2022/06/21 01:40:35;;;;;;;0.60;0.60;;;17.80;99.90;;;;;;5052801;28;20206;-63
2022/06/21 01:43:07;;;;;;;0.65;0.65;;;17.80;99.90;;;;;;5051789;28;20656;-64
2022/06/21 01:45:39;;;;;;;0.50;0.50;;;17.80;99.90;;;;;;5052459;28;20255;-63
2022/06/21 01:48:12;;;;;;;0.73;0.73;;;17.80;99.90;;;;;;5048735;28;20307;-64
2022/06/21 01:50:41;;;;;;;0.70;0.70;;;17.70;99.90;;;;;;5049671;28;20211;-63
2022/06/21 01:53:10;;;;;;;0.50;0.50;;;17.70;99.90;;;;;;5049678;28;20326;-64
2022/06/21 01:55:42;;;;;;;0.70;0.70;;;17.60;99.90;;;;;;5051565;28;20645;-64
2022/06/21 01:58:15;;;;;;;0.60;0.60;;;17.50;99.90;;;;;;5051859;28;20665;-65
2022/06/21 02:00:46;;;;;;;0.70;0.70;;;17.70;99.90;;;;;;5049240;28;20200;-63
2022/06/21 02:03:16;;;;;;;0.77;0.77;;;17.40;99.90;;;;;;5053429;28;20649;-64
2022/06/21 02:05:47;;;;;;;0.60;0.60;;;17.40;99.90;;;;;;5053569;28;20200;-64
2022/06/21 02:08:16;;;;;;;0.70;0.70;;;17.30;99.90;;;;;;5053039;28;20492;-65
2022/06/21 02:10:47;;;;;;;0.85;0.85;;;17.30;99.90;;;;;;5051575;28;20287;-64
2022/06/21 02:13:20;;;;;;;0.60;0.60;;;17.30;99.90;;;;;;5052616;28;20224;-64
2022/06/21 02:15:51;;;;;;;0.63;0.63;;;17.20;99.90;;;;;;5051633;28;20207;-65
2022/06/21 02:18:20;;;;;;;0.50;0.50;;;17.30;99.90;;;;;;5052377;28;20210;-64
2022/06/21 02:20:51;;;;;;;0.60;0.60;;;17.30;99.90;;;;;;5050984;28;20200;-64
2022/06/21 02:23:20;;;;;;;0.77;0.77;;;17.40;99.90;;;;;;5052931;28;20311;-65
2022/06/21 02:25:47;;;;;;;0.50;0.50;;;17.40;99.90;;;;;;5052183;28;20286;-64
2022/06/21 02:28:18;;;;;;;0.50;0.50;;;17.40;99.90;;;;;;5054221;28;20739;-64
2022/06/21 02:30:45;;;;;;;0.57;0.57;;;17.40;99.90;;;;;;5055049;28;20207;-65
2022/06/21 02:33:17;;;;;;;0.63;0.63;;;17.40;99.90;;;;;;5052329;28;20255;-65
2022/06/21 02:35:47;;;;;;;0.80;0.80;;;17.40;99.90;;;;;;5051267;28;20196;-64
2022/06/21 02:38:18;;;;;;;0.52;0.52;;;17.40;99.90;;;;;;5052124;28;20206;-64
2022/06/21 02:40:49;;;;;;;0.60;0.60;;;17.30;99.90;;;;;;5051850;28;20318;-64
2022/06/21 02:43:21;;;;;;;0.60;0.60;;;17.20;99.90;;;;;;5054933;28;20230;-64
2022/06/21 02:45:51;;;;;;;0.63;0.63;;;17.20;99.90;;;;;;5056604;28;20210;-63
2022/06/21 02:48:24;;;;;;;0.70;0.70;;;17.10;99.90;;;;;;5056597;28;20211;-64
2022/06/21 02:50:54;;;;;;;0.80;0.80;;;17.10;99.90;;;;;;5057053;28;20287;-64
2022/06/21 02:53:26;;;;;;;0.70;0.70;;;17.10;99.90;;;;;;5055899;28;20296;-64
2022/06/21 02:55:59;;;;;;;0.60;0.60;;;17.10;99.90;;;;;;5055024;28;20291;-64
2022/06/21 02:58:31;;;;;;;0.70;0.70;;;17.00;99.90;;;;;;5051136;28;20228;-65
2022/06/21 03:01:03;;;;;;;0.50;0.50;;;17.00;99.90;;;;;;5047381;28;20234;-65
2022/06/21 03:03:32;;;;;;;0.60;0.60;;;17.00;99.90;;;;;;5055898;28;20308;-63
2022/06/21 03:06:02;;;;;;;0.70;0.70;;;17.00;99.90;;;;;;5047831;28;20295;-64
2022/06/21 03:08:32;;;;;;;0.60;0.60;;;16.90;99.90;;;;;;5056269;28;20212;-64
2022/06/21 03:10:59;;;;;;;1.03;1.00;;;16.90;99.90;;;;;;5046644;28;20229;-64
2022/06/21 03:13:32;;;;;;;0.65;0.65;;;16.80;99.90;;;;;;5055197;28;20223;-66
2022/06/21 03:16:02;;;;;;;0.80;0.80;;;16.80;99.90;;;;;;5046657;28;20670;-64
2022/06/21 03:18:35;;;;;;;0.52;0.52;;;16.70;99.90;;;;;;5055566;28;20200;-65
2022/06/21 03:21:04;;;;;;;0.80;0.80;;;16.70;99.90;;;;;;5047534;28;20236;-63
2022/06/21 03:23:32;;;;;;;1.42;0.70;;;16.60;99.90;;;;;;5054760;28;20303;-65
2022/06/21 03:26:01;;;;;;;0.80;0.80;;;16.60;99.90;;;;;;5046494;28;20262;-65
2022/06/21 03:28:33;;;;;;;0.70;0.70;;;16.80;99.90;;;;;;5055148;28;20226;-65
2022/06/21 03:31:10;;;;;;;0.70;0.70;;;16.70;99.90;;;;;;5046829;28;20199;-64
2022/06/21 03:33:40;;;;;;;0.70;0.70;;;16.70;99.90;;;;;;5062354;28;20421;-65
2022/06/21 03:36:10;;;;;;;0.82;0.82;;;16.80;99.90;;;;;;5046636;28;20208;-65
2022/06/21 03:38:40;;;;;;;1.33;0.73;;;16.80;99.90;;;;;;5058591;28;20197;-65
2022/06/21 03:43:58;;;;;;;0.77;0.77;;;16.80;99.90;;;;;;5054559;28;20238;-64
2022/06/21 03:46:33;;;;;;;0.50;0.50;;;16.80;99.90;;;;;;5054582;28;20246;-64
2022/06/21 03:49:05;;;;;;;0.60;0.60;;;16.80;99.90;;;;;;5042717;28;20219;-65
2022/06/21 03:51:35;;;;;;;0.70;0.70;;;16.90;99.90;;;;;;5058421;28;20200;-65
2022/06/21 03:54:09;;;;;;;19.17;6.63;;;16.90;99.90;;;;;;5046314;28;20253;-59
2022/06/21 03:56:40;;;;;;;2.60;1.23;;;17.00;99.90;;;;;;5053906;28;20212;-62
2022/06/21 03:59:14;;;;;;;2.23;1.30;;;17.40;99.90;;;;;;5054366;28;20546;-62
2022/06/21 04:01:47;;;;;;;0.80;0.80;;;18.10;99.90;;;;;;5054381;28;20200;-61
2022/06/21 04:04:22;;;;;;;0.85;0.77;;;18.60;99.90;;;;;;5054067;28;20255;-60
2022/06/21 04:06:55;;;;;;;0.95;0.90;;;19.00;99.90;;;;;;5053792;28;20597;-61
2022/06/21 04:09:38;;;;;;;0.80;0.80;;;19.40;99.90;;;;;;5054094;28;20646;-61
2022/06/21 04:12:11;;;;;;;0.95;0.88;;;19.50;99.90;;;;;;5052563;28;20287;-62
2022/06/21 04:14:45;;;;;;;0.83;0.83;;;19.70;99.90;;;;;;5054259;28;20238;-62
2022/06/21 04:17:18;;;;;;;0.70;0.70;;;19.80;99.90;;;;;;5052922;28;20232;-62
2022/06/21 04:19:51;;;;;;;0.80;0.80;;;19.80;99.90;;;;;;5054191;28;20260;-61
2022/06/21 04:22:27;;;;;;;0.80;0.80;;;19.80;99.90;;;;;;5054113;28;20283;-63
2022/06/21 04:24:59;;;;;;;1.48;0.93;;;19.80;99.90;;;;;;5054096;28;20203;-63
2022/06/21 04:27:33;;;;;;;0.70;0.70;;;19.80;99.90;;;;;;5052711;28;20314;-62
2022/06/21 04:30:05;;;;;;;0.73;0.73;;;19.70;99.90;;;;;;5045499;28;20254;-62
2022/06/21 04:32:37;;;;;;;0.80;0.80;;;19.90;99.90;;;;;;5054507;28;20200;-63
2022/06/21 04:35:07;;;;;;;0.77;0.77;;;19.90;99.90;;;;;;5046480;28;20196;-63
2022/06/21 04:37:40;;;;;;;0.63;0.63;;;19.80;99.90;;;;;;5053004;28;20200;-63
2022/06/21 04:40:14;;;;;;;0.70;0.70;;;19.70;99.90;;;;;;5053985;28;20200;-62
2022/06/21 04:42:47;;;;;;;0.70;0.70;;;19.80;99.90;;;;;;5053092;28;20674;-62
2022/06/21 04:45:25;;;;;;;0.70;0.70;;;19.80;99.90;;;;;;5053166;28;20207;-62
2022/06/21 04:48:04;;;;;;;1.00;1.00;;;19.60;99.90;;;;;;5048119;28;20231;-63
2022/06/21 04:50:39;;;;;;;0.60;0.60;;;19.20;99.90;;;;;;5050473;28;20233;-62
2022/06/21 04:53:16;;;;;;;0.80;0.80;;;19.10;99.90;;;;;;5048966;28;20847;-62
2022/06/21 04:55:55;;;;;;;0.70;0.70;;;19.00;99.90;;;;;;5050682;28;20204;-62
2022/06/21 04:58:21;;;;;;;0.70;0.70;;;19.00;99.90;;;;;;5053261;28;20286;-62
2022/06/21 05:00:50;;;;;;;1.23;0.82;;;19.00;99.90;;;;;;5053828;28;20268;-62
2022/06/21 05:03:29;;;;;;;1.10;1.00;;;18.90;99.90;;;;;;5055939;28;20239;-62
2022/06/21 05:05:56;;;;;;;0.73;0.73;;;19.20;99.90;;;;;;5065328;28;20637;-66
2022/06/21 05:08:25;;;;;;;0.90;0.90;;;19.20;99.90;;;;;;5067897;28;20243;-68
2022/06/21 05:10:55;;;;;;;0.98;0.98;;;19.10;99.90;;;;;;5065683;28;20212;-67
2022/06/21 05:13:26;;;;;;;0.90;0.90;;;18.90;99.90;;;;;;5057757;28;20224;-67
2022/06/21 05:15:57;;;;;;;2.15;0.98;;;19.00;99.90;;;;;;5052702;28;20212;-68
2022/06/21 05:18:29;;;;;;;1.00;1.00;;;18.80;99.90;;;;;;5052616;28;20196;-67
2022/06/21 05:20:59;;;;;;;0.90;0.90;;;18.60;99.90;;;;;;5052975;28;20645;-67
2022/06/21 05:23:27;;;;;;;0.90;0.85;;;18.60;99.90;;;;;;5054495;28;20649;-68
2022/06/21 05:25:54;;;;;;;0.70;0.70;;;18.40;99.90;;;;;;5053763;28;20208;-67
2022/06/21 05:28:28;;;;;;;1.42;0.90;;;18.40;99.90;;;;;;5068120;28;20250;-68
2022/06/21 05:31:00;;;;;;;0.80;0.80;;;18.00;99.90;;;;;;5068274;28;20231;-66
2022/06/21 05:33:33;;;;;;;1.17;1.08;;;18.00;99.90;;;;;;5049582;28;20237;-67
2022/06/21 05:36:01;;;;;;;0.85;0.85;;;18.00;99.90;;;;;;5048705;28;20224;-67
2022/06/21 05:38:31;;;;;;;0.87;0.87;;;17.90;99.90;;;;;;5050858;28;20261;-68
2022/06/21 05:40:59;;;;;;;0.90;0.90;;;17.90;99.90;;;;;;5061351;28;20239;-67
2022/06/21 05:43:35;;;;;;;0.90;0.90;;;17.90;99.90;;;;;;5065655;28;20250;-70
2022/06/21 05:46:10;;;;;;;1.08;1.08;;;18.10;99.90;;;;;;5066226;28;20202;-68
2022/06/21 05:48:41;;;;;;;0.90;0.90;;;18.40;99.90;;;;;;5060596;28;20214;-68
2022/06/21 05:51:15;;;;;;;1.20;1.10;;;18.60;99.90;;;;;;5064715;28;20195;-68
2022/06/21 05:53:47;;;;;;;0.98;0.98;;;18.80;99.90;;;;;;5061149;28;20251;-68
2022/06/21 05:56:17;;;;;;;0.70;0.70;;;19.10;99.90;;;;;;5048029;28;20275;-68
2022/06/21 05:58:47;;;;;;;0.73;0.73;;;19.00;99.90;;;;;;5049824;28;20597;-68
2022/06/21 06:01:22;;;;;;;1.48;1.00;;;18.90;99.90;;;;;;5051183;28;20235;-67
2022/06/21 06:03:54;;;;;;;1.83;1.20;;;18.80;99.90;;;;;;5047108;28;20287;-66
2022/06/21 06:06:22;;;;;;;0.98;0.98;;;18.60;99.90;;;;;;5049439;28;20196;-68
2022/06/21 06:08:54;;;;;;;1.10;1.10;;;18.40;99.90;;;;;;5048952;28;20266;-67
2022/06/21 06:11:24;;;;;;;0.95;0.95;;;18.20;99.90;;;;;;5047957;28;20287;-71
2022/06/21 06:13:54;;;;;;;0.95;0.95;;;18.00;99.90;;;;;;5059981;28;20741;-68
2022/06/21 06:16:37;;;;;;;2.03;1.10;;;18.20;99.90;;;;;;5057852;28;20224;-67
2022/06/21 06:19:11;;;;;;;1.35;1.23;;;18.50;99.90;;;;;;5051177;28;20282;-68
2022/06/21 06:21:43;;;;;;;1.30;0.95;;;18.70;99.90;;;;;;5057803;28;20294;-67
2022/06/21 06:24:19;;;;;;;0.88;0.88;;;18.90;99.90;;;;;;5067155;28;20308;-69
2022/06/21 06:26:49;;;;;;;0.80;0.80;;;19.00;99.90;;;;;;5066541;28;20286;-67
2022/06/21 06:29:22;;;;;;;0.85;0.85;;;19.10;99.90;;;;;;5062940;28;20283;-66
2022/06/21 06:31:54;;;;;;;1.23;0.93;;;19.40;99.90;;;;;;5062604;28;20657;-68
2022/06/21 06:34:24;;;;;;;0.90;0.90;;;19.60;99.90;;;;;;5058735;28;20266;-65
2022/06/21 06:36:54;;;;;;;0.90;0.90;;;19.70;99.90;;;;;;5057272;28;20208;-67
2022/06/21 06:39:23;;;;;;;1.10;1.00;;;19.80;99.90;;;;;;5057863;28;20188;-65
2022/06/21 06:41:56;;;;;;;0.80;0.80;;;19.80;99.90;;;;;;5055150;28;20531;-68
2022/06/21 06:44:24;;;;;;;1.10;0.93;;;19.40;99.90;;;;;;5056524;28;20224;-67
2022/06/21 06:46:53;;;;;;;0.93;0.87;;;19.30;99.90;;;;;;5055520;28;20200;-66
2022/06/21 06:49:23;;;;;;;2.05;1.20;;;19.30;99.90;;;;;;5055447;28;20223;-66
2022/06/21 06:52:00;;;;;;;2.72;1.00;;;19.40;99.90;;;;;;5054680;28;20276;-66
2022/06/21 06:54:35;;;;;;;0.90;0.90;;;19.50;99.90;;;;;;5055226;28;20718;-67
2022/06/21 06:57:11;;;;;;;0.90;0.90;;;19.40;99.90;;;;;;5047164;28;20207;-67
2022/06/21 06:59:39;;;;;;;0.90;0.85;;;19.40;99.90;;;;;;5055457;28;20633;-67
2022/06/21 07:02:18;;;;;;;0.90;0.90;;;19.70;99.90;;;;;;5055363;28;20252;-66
2022/06/21 07:04:51;;;;;;;1.00;1.00;;;19.80;99.90;;;;;;5054943;28;20200;-66
2022/06/21 07:07:26;;;;;;;0.90;0.90;;;19.90;99.90;;;;;;5054832;28;20227;-68
2022/06/21 07:09:58;;;;;;;0.82;0.82;;;20.10;99.90;;;;;;5052851;28;21805;-67
2022/06/21 07:12:27;;;;;;;1.05;0.98;;;20.30;99.90;;;;;;5055328;28;20196;-67
2022/06/21 07:14:55;;;;;;;0.90;0.90;;;20.40;99.90;;;;;;5054865;28;21006;-68
2022/06/21 07:17:29;;;;;;;1.13;0.90;;;20.30;99.90;;;;;;5049159;28;20325;-67
2022/06/21 07:19:57;;;;;;;0.95;0.95;;;20.40;99.90;;;;;;5054476;28;20287;-66
2022/06/21 07:22:28;;;;;;;2.95;1.20;;;20.50;99.90;;;;;;5054901;28;20701;-67
2022/06/21 07:25:02;;;;;;;0.80;0.80;;;20.60;99.90;;;;;;5055279;28;20211;-68
2022/06/21 07:27:32;;;;;;;0.70;0.70;;;20.70;99.90;;;;;;5053874;28;20886;-67
2022/06/21 07:30:03;;;;;;;1.80;1.20;;;20.70;99.90;;;;;;5047295;28;20224;-66
2022/06/21 07:32:37;;;;;;;1.10;1.10;;;20.50;99.90;;;;;;5054618;28;20214;-66
2022/06/21 07:35:09;;;;;;;1.10;1.00;;;20.40;99.90;;;;;;5047263;28;20198;-66
2022/06/21 07:37:41;;;;;;;0.90;0.90;;;20.20;99.90;;;;;;5055026;28;20200;-67
2022/06/21 07:40:13;;;;;;;1.75;1.00;;;20.20;99.90;;;;;;5086656;23;20220;-60
2022/06/21 07:42:46;;;;;;;0.90;0.90;;;20.10;99.90;;;;;;5080773;28;20225;-60
2022/06/21 07:45:18;;;;;;;1.00;1.00;;;20.10;99.90;;;;;;5086947;28;20704;-61
2022/06/21 07:47:51;;;;;;;1.13;1.13;;;19.90;99.90;;;;;;5094076;28;20272;-60
2022/06/21 07:50:23;;;;;;;0.80;0.80;;;19.80;99.90;;;;;;5080859;28;20318;-60
2022/06/21 07:52:55;;;;;;;1.20;0.93;;;19.80;99.90;;;;;;5083924;28;20213;-60
2022/06/21 07:55:27;;;;;;;1.02;1.00;;;19.80;99.90;;;;;;5079677;28;20225;-60
2022/06/21 07:57:59;;;;;;;0.70;0.70;;;20.00;99.90;;;;;;5083565;28;20683;-61
2022/06/21 08:06:40;;;;;;;0.95;0.95;;;20.30;99.90;;;;;;5086019;28;20211;-61
2022/06/21 08:09:14;;;;;;;1.05;1.05;;;20.70;99.90;;;;;;5081478;28;20234;-61
2022/06/21 08:11:43;;;;;;;1.02;1.02;;;20.70;99.90;;;;;;5079554;28;20298;-61
2022/06/21 08:14:11;;;;;;;0.90;0.90;;;20.70;99.90;;;;;;5081360;28;20239;-61
2022/06/21 08:16:46;;;;;;;1.10;1.00;;;20.90;99.90;;;;;;5083974;28;20213;-60
2022/06/21 08:19:21;;;;;;;1.25;1.00;;;21.30;99.90;;;;;;5088059;28;20238;-61
2022/06/21 08:21:54;;;;;;;1.00;1.00;;;21.30;99.90;;;;;;5083513;28;20302;-61
2022/06/21 08:24:28;;;;;;;2.67;1.10;;;21.60;99.90;;;;;;5078942;28;20290;-60
2022/06/21 08:27:05;;;;;;;1.02;1.02;;;21.80;99.90;;;;;;5083454;28;20636;-60
2022/06/21 08:29:36;;;;;;;1.20;1.20;;;21.70;99.90;;;;;;5076560;28;20233;-60
2022/06/21 08:32:08;;;;;;;0.90;0.90;;;21.70;99.90;;;;;;5087907;28;20289;-61
2022/06/21 08:34:43;;;;;;;1.30;1.20;;;21.80;99.90;;;;;;5084121;28;20203;-61
2022/06/21 08:37:14;;;;;;;0.95;0.95;;;22.00;99.90;;;;;;5078788;28;20202;-61
2022/06/21 08:39:48;;;;;;;0.80;0.80;;;22.20;99.90;;;;;;5082437;28;20223;-61
2022/06/21 08:42:52;;;;;;;0.80;0.80;;;22.50;99.90;;;;;;5079736;28;20289;-60
2022/06/21 08:45:46;;;;;;;1.75;0.90;;;22.70;99.90;;;;;;5074269;28;20310;-60
2022/06/21 08:48:39;;;;;;;1.00;1.00;;;22.90;99.90;;;;;;5080437;28;20627;-60
2022/06/21 08:51:30;;;;;;;0.88;0.88;;;22.90;99.90;;;;;;5081395;28;20305;-60
2022/06/21 08:54:05;;;;;;;1.00;1.00;;;22.70;99.90;;;;;;5084170;28;20213;-60
2022/06/21 08:56:41;;;;;;;0.90;0.90;;;22.80;99.90;;;;;;5084365;28;20209;-60
2022/06/21 08:59:21;;;;;;;1.23;1.20;;;22.80;99.90;;;;;;5078034;28;20673;-60
2022/06/21 09:01:57;;;;;;;0.90;0.90;;;23.10;99.90;;;;;;5089415;28;20233;-61
2022/06/21 09:04:34;;;;;;;1.00;1.00;;;23.20;99.90;;;;;;5081153;28;20286;-60
2022/06/21 09:07:20;;;;;;;1.30;1.20;;;23.10;99.90;;;;;;5079425;28;20195;-60
2022/06/21 09:09:59;;;;;;;1.13;1.05;;;23.20;99.90;;;;;;5078917;28;20760;-60
2022/06/21 09:12:37;;;;;;;1.60;1.20;;;23.30;99.90;;;;;;5080266;28;20199;-61
2022/06/21 09:15:38;;;;;;;1.15;0.98;;;23.40;99.90;;;;;;5082353;28;20203;-60
2022/06/21 09:18:17;;;;;;;0.95;0.95;;;23.20;99.90;;;;;;5078707;28;20282;-62
2022/06/21 09:20:52;;;;;;;1.00;1.00;;;23.30;99.90;;;;;;5081761;28;20214;-62
2022/06/21 09:23:31;;;;;;;1.00;1.00;;;23.40;99.90;;;;;;5079954;28;20280;-60
2022/06/21 09:26:05;;;;;;;0.95;0.95;;;23.50;99.90;;;;;;5083390;28;20222;-61
2022/06/21 09:28:39;;;;;;;1.10;1.10;;;23.60;99.90;;;;;;5083683;28;20266;-60
2022/06/21 09:31:14;;;;;;;0.95;0.95;;;23.80;99.90;;;;;;5085252;28;20305;-62
2022/06/21 09:33:57;;;;;;;1.00;1.00;;;24.00;99.90;;;;;;5091194;28;20263;-61
2022/06/21 09:36:32;;;;;;;1.30;1.20;;;24.00;99.90;;;;;;5087404;28;20194;-62
2022/06/21 09:39:11;;;;;;;1.10;1.10;;;23.90;99.90;;;;;;5081517;28;20675;-61
2022/06/21 09:41:48;;;;;;;1.23;1.13;;;24.10;99.90;;;;;;5081723;28;20205;-61
2022/06/21 09:44:22;;;;;;;1.00;1.00;;;24.30;99.90;;;;;;5081279;28;20286;-60
2022/06/21 09:46:56;;;;;;;1.20;1.10;;;24.50;99.90;;;;;;5082684;28;20217;-60
2022/06/21 09:49:42;;;;;;;1.20;1.10;;;24.50;99.90;;;;;;5080940;28;20679;-60
2022/06/21 09:52:17;;;;;;;1.27;1.00;;;24.60;99.90;;;;;;5079646;28;20231;-60
2022/06/21 09:54:59;;;;;;;1.05;1.00;;;24.80;99.90;;;;;;5080352;28;20216;-60
2022/06/21 09:57:34;;;;;;;1.38;1.27;;;24.80;99.90;;;;;;5079224;28;20231;-60
2022/06/21 10:00:08;;;;;;;1.35;1.25;;;24.80;99.90;;;;;;5079917;28;20258;-60
2022/06/21 10:02:44;;;;;;;1.10;1.10;;;24.90;99.90;;;;;;5080292;28;20199;-61
2022/06/21 10:05:21;;;;;;;1.17;1.00;;;25.00;99.90;;;;;;5080135;28;20202;-62
2022/06/21 10:08:04;;;;;;;1.13;1.05;;;25.10;99.90;;;;;;5081151;28;20666;-61
2022/06/21 10:10:46;;;;;;;1.48;1.20;;;25.20;99.90;;;;;;5074767;28;20231;-59
2022/06/21 10:13:25;;;;;;;1.00;1.00;;;25.30;99.90;;;;;;5080653;28;20209;-61
2022/06/21 10:16:07;;;;;;;1.00;1.00;;;25.30;99.90;;;;;;5080614;28;20381;-61
2022/06/21 10:19:00;;;;;;;1.40;1.35;;;25.30;99.90;;;;;;5085166;28;20270;-61
2022/06/21 10:21:45;;;;;;;0.93;0.93;;;25.60;99.90;;;;;;5083972;28;20732;-63
2022/06/21 10:24:42;;;;;;;1.38;1.27;;;25.80;99.90;;;;;;5081090;28;20286;-59
2022/06/21 10:27:41;;;;;;;1.30;1.20;;;26.00;99.90;;;;;;5071798;28;20316;-61
2022/06/21 10:30:26;;;;;;;1.20;1.20;;;26.00;99.90;;;;;;5076188;28;20230;-61
2022/06/21 10:33:22;;;;;;;1.55;1.30;;;26.00;99.90;;;;;;5080585;28;20208;-61
2022/06/21 10:36:00;;;;;;;1.00;1.00;;;26.20;99.90;;;;;;5070641;28;20198;-61
2022/06/21 10:39:06;;;;;;;1.00;1.00;;;26.30;99.90;;;;;;5080904;28;20199;-60
2022/06/21 10:42:46;;;;;;;0.93;0.93;;;25.70;99.90;;;;;;5080621;28;20195;-61
2022/06/21 10:45:02;;;;;;;1.00;1.00;;;25.60;99.90;;;;;;5080000;28;20567;-61
2022/06/21 10:47:45;;;;;;;1.40;1.30;;;25.60;99.90;;;;;;5081633;28;20205;-60
2022/06/21 10:50:26;;;;;;;1.40;1.30;;;25.90;99.90;;;;;;5079252;28;20599;-61
2022/06/21 10:53:13;;;;;;;1.10;1.10;;;26.40;99.90;;;;;;5083645;28;21527;-62
2022/06/21 10:57:09;;;;;;;1.40;1.30;;;26.60;99.90;;;;;;5082739;28;20721;-61
2022/06/21 10:58:58;;;;;;;1.38;1.20;;;26.50;99.90;;;;;;5080894;28;20206;-61
2022/06/21 11:01:32;;;;;;;2.22;1.30;;;26.40;99.90;;;;;;5083086;28;20563;-62
2022/06/21 11:04:30;;;;;;;1.10;1.10;;;26.20;99.90;;;;;;5082095;28;20638;-62
2022/06/21 11:07:03;;;;;;;1.40;1.30;;;26.00;99.90;;;;;;5080047;28;20239;-61
2022/06/21 11:09:38;;;;;;;1.27;1.10;;;25.80;99.90;;;;;;5083023;28;20227;-61
2022/06/21 11:15:04;;;;;;;1.10;1.10;;;25.80;99.90;;;;;;5080509;28;20201;-61
2022/06/21 11:17:43;;;;;;;1.15;1.05;;;25.80;99.90;;;;;;5082249;28;20750;-60
2022/06/21 11:20:22;;;;;;;1.75;1.08;;;25.90;99.90;;;;;;5084841;28;20276;-60
2022/06/21 11:23:03;;;;;;;1.23;1.23;;;26.10;99.90;;;;;;5080108;28;20566;-60
2022/06/21 11:25:40;;;;;;;1.27;1.27;;;26.00;99.90;;;;;;5090882;28;20293;-60
2022/06/21 11:28:18;;;;;;;1.15;1.15;;;26.00;99.90;;;;;;5080119;28;20290;-60
2022/06/21 11:30:51;;;;;;;1.20;1.10;;;25.80;99.90;;;;;;5091021;28;20236;-60
2022/06/21 11:33:30;;;;;;;1.40;1.30;;;25.90;99.90;;;;;;5080514;28;20195;-60
2022/06/21 11:36:06;;;;;;;1.05;1.05;;;25.90;99.90;;;;;;5082017;28;20245;-61
2022/06/21 11:38:46;;;;;;;2.30;1.30;;;25.90;99.90;;;;;;5084282;28;20195;-59
2022/06/21 11:44:12;;;;;;;1.70;1.38;;;26.00;99.90;;;;;;5081429;28;20191;-61
2022/06/21 11:46:46;;;;;;;1.10;1.10;;;25.80;99.90;;;;;;5082211;28;20253;-61
2022/06/21 11:49:33;;;;;;;1.13;1.13;;;25.80;99.90;;;;;;5094255;28;20226;-61
2022/06/21 11:52:33;;;;;;;1.10;1.10;;;25.90;99.90;;;;;;5081924;28;20741;-60
2022/06/21 11:55:10;;;;;;;1.00;1.00;;;26.00;99.90;;;;;;5082171;28;20308;-62
2022/06/21 11:57:45;;;;;;;2.72;1.33;;;26.00;99.90;;;;;;5081695;28;20199;-60
2022/06/21 12:00:17;;;;;;;1.05;1.05;;;26.00;99.90;;;;;;5081893;28;20692;-60
2022/06/21 12:02:50;;;;;;;2.05;1.10;;;26.20;99.90;;;;;;5083222;28;20276;-61
2022/06/21 12:05:26;;;;;;;1.33;1.23;;;26.50;99.90;;;;;;5092738;28;20282;-60
2022/06/21 12:08:01;;;;;;;1.45;1.35;;;26.70;99.90;;;;;;5091338;28;20704;-62
2022/06/21 12:10:42;;;;;;;2.15;1.30;;;26.60;99.90;;;;;;5077727;28;20226;-62
2022/06/21 12:13:23;;;;;;;1.23;1.23;;;26.70;99.90;;;;;;5082497;28;20209;-61
2022/06/21 12:16:07;;;;;;;1.10;1.10;;;26.90;99.90;;;;;;5076260;28;20200;-61
2022/06/21 12:18:36;;;;;;;1.20;1.10;;;27.40;99.90;;;;;;5085432;28;20289;-61
2022/06/21 12:21:09;;;;;;;1.20;1.20;;;27.70;99.90;;;;;;5082001;28;20219;-61
2022/06/21 12:23:41;;;;;;;1.20;1.20;;;27.80;99.90;;;;;;5083966;28;20210;-62
2022/06/21 12:26:12;;;;;;;1.10;1.10;;;28.00;99.90;;;;;;5080195;28;20226;-62
2022/06/21 12:28:40;;;;;;;1.35;1.25;;;27.90;99.90;;;;;;5083106;28;20578;-62
2022/06/21 12:31:15;;;;;;;1.20;1.20;;;28.00;99.90;;;;;;5081336;28;20227;-61
2022/06/21 12:33:45;;;;;;;1.20;1.10;;;28.20;99.90;;;;;;5083297;28;20536;-62
2022/06/21 12:36:26;;;;;;;1.20;1.20;;;28.40;99.90;;;;;;5086330;28;20214;-60
2022/06/21 12:38:59;;;;;;;1.10;1.10;;;28.00;99.90;;;;;;5096422;28;20603;-62
2022/06/21 12:41:39;;;;;;;1.20;1.10;;;28.20;99.90;;;;;;5098482;28;20197;-63
2022/06/21 12:44:14;;;;;;;1.92;1.27;;;28.40;99.90;;;;;;5094585;28;20377;-62
2022/06/21 12:46:48;;;;;;;1.10;1.10;;;28.50;99.90;;;;;;5082804;28;20195;-60
2022/06/21 12:49:36;;;;;;;1.20;1.15;;;28.50;99.90;;;;;;5087502;28;20630;-62
2022/06/21 12:52:15;;;;;;;1.08;1.08;;;28.70;99.90;;;;;;5105209;28;20277;-62
2022/06/21 12:55:03;;;;;;;1.73;1.35;;;28.80;99.90;;;;;;5106667;28;20208;-62
2022/06/21 12:57:44;;;;;;;1.10;1.10;;;28.90;99.90;;;;;;5101761;28;20288;-61
2022/06/21 13:00:20;;;;;;;1.95;1.30;;;29.00;99.90;;;;;;5104244;28;20214;-61
2022/06/21 13:03:28;;;;;;;1.10;1.05;;;28.90;99.90;;;;;;5097991;28;20635;-61
2022/06/21 13:06:12;;;;;;;1.92;1.33;;;28.90;99.90;;;;;;5054879;28;21020;-61
2022/06/21 13:09:16;;;;;;;1.30;1.20;;;29.10;99.90;;;;;;5106432;28;20285;-60
2022/06/21 13:11:54;;;;;;;1.08;1.08;;;29.20;99.90;;;;;;5099616;28;20264;-61
2022/06/21 13:15:05;;;;;;;1.42;1.20;;;29.40;99.90;;;;;;5107334;28;20190;-61
2022/06/21 13:17:53;;;;;;;1.30;1.25;;;29.40;99.90;;;;;;5091843;28;20561;-61
2022/06/21 13:20:27;;;;;;;1.67;1.20;;;29.60;99.90;;;;;;5082207;28;20329;-61
2022/06/21 13:23:02;;;;;;;1.48;1.27;;;29.60;99.90;;;;;;5085868;28;20281;-61
2022/06/21 13:25:44;;;;;;;1.83;1.20;;;29.50;99.90;;;;;;5086741;28;20225;-60
2022/06/21 13:28:25;;;;;;;1.10;1.10;;;29.70;99.90;;;;;;5086085;28;20608;-61
2022/06/21 13:30:56;;;;;;;1.20;1.20;;;29.70;99.90;;;;;;5091484;28;20343;-61
2022/06/21 13:33:28;;;;;;;1.35;1.35;;;29.70;99.90;;;;;;5091998;28;20289;-61
2022/06/21 13:36:02;;;;;;;1.63;1.30;;;29.90;99.90;;;;;;5091263;28;20207;-61
2022/06/21 13:38:38;;;;;;;1.85;1.30;;;29.90;99.90;;;;;;5092156;28;20228;-61
2022/06/21 13:42:37;;;;;;;2.58;1.55;;;30.00;99.90;;;;;;5087050;28;20237;-59
2022/06/21 13:44:09;;;;;;;1.33;1.23;;;29.80;99.90;;;;;;5090651;28;20279;-60